Teluk Intan, Malaysia
Current Conditions -  °F | °C
As of 11:00 AM on Sunday 26 Oct 2014 (Local Time) from WMBA Reporting Station
Broken Clouds Broken Clouds  
Wind Chill: 88°   Ceiling: 28000
Heat Index: 102°   Visibility: 6mi
Dew Point: 79°   Wind: 3mph
Humidity: 75%   Direction: 50°NE
Pressure: 29.88"   Gusts: NA
Location:  4.02°N, 101.03°E
Report Text: WMBA 260300Z 05003KT 9999 SCT020 BKN280 31/26 Q1012
Loading
Personal Weather Stations






























Interactive Weather Map
Tropical Storm Tracking
New forecast layout! Learn more

10-Day Weather Forecast

Advertisements
Track Severe Weather on mobile